WetterOnline ( https://www.wetteronline.de )

Wetter aktuell Roßlaich

Aktuelles Wetter: Hohenpeißenberg (986m)

6-stündlich | Neueste Meldungen
Ortszeit Temperatur Wetter
Mo, 17.06. 2:00 12.3° C wolkig
So, 16.06. 20:00 14.5° C bedeckt
So, 16.06. 14:00 15.8° C bewölkt
So, 16.06. 8:00 10.9° C bewölkt
So, 16.06. 2:00 10.8° C leichter Regen
Sa, 15.06. 20:00 17.1° C bedeckt
Sa, 15.06. 14:00 21.2° C fast wolkenlos
Sa, 15.06. 8:00 17.5° C wolkenlos
Ortszeit Temperatur Wetter
Mo, 17.06. 6:30 11.9° C Nebel
Mo, 17.06. 6:20 11.9° C Nebel
Mo, 17.06. 6:10 11.9° C Nebel
Mo, 17.06. 6:00 11.9° C Nebel
Mo, 17.06. 5:50 11.9° C Nebel
Mo, 17.06. 5:40 11.9° C Nebel
Mo, 17.06. 5:30 12.0° C Nebel
Mo, 17.06. 5:00 11.9° C Nebel
Mo, 17.06. 4:30 11.9° C Nebel
Mo, 17.06. 4:00 11.9° C Nebel
Mo, 17.06. 3:30 11.8° C wolkenlos
Ortszeit Relative Feuchte Sichtweite
Mo, 17.06. 2:00 96% 12 km
So, 16.06. 20:00 83% 55 km
So, 16.06. 14:00 69% 60 km
So, 16.06. 8:00 97% 29 km
So, 16.06. 2:00 100% 100 m
Sa, 15.06. 20:00 79% 50 km
Sa, 15.06. 14:00 58% >70 km
Sa, 15.06. 8:00 67% 40 km
Ortszeit Relative Feuchte Sichtweite
Mo, 17.06. 6:30 100% 0.2 km
Mo, 17.06. 6:20 100% -
Mo, 17.06. 6:10 100% -
Mo, 17.06. 6:00 100% <100 m
Mo, 17.06. 5:50 100% -
Mo, 17.06. 5:40 100% -
Mo, 17.06. 5:30 100% 100 m
Mo, 17.06. 5:00 100% 100 m
Mo, 17.06. 4:30 100% 100 m
Mo, 17.06. 4:00 99% 100 m
Mo, 17.06. 3:30 98% 4.5 km
Ortszeit Niederschlagsmenge Niederschlagsart
Mo, 17.06. 2:00 0.0 l/m2 in 6 Std. -
So, 16.06. 20:00 0.1 l/m2 in 12 Std. -
So, 16.06. 14:00 0.1 l/m2 in 6 Std. -
So, 16.06. 8:00 12 l/m2 in 12 Std. Regen
So, 16.06. 2:00 12 l/m2 in 6 Std. Regenschauer
Sa, 15.06. 20:00 0.1 l/m2 in 12 Std. Regen
Sa, 15.06. 14:00 0.0 l/m2 in 6 Std. -
Sa, 15.06. 8:00 0.0 l/m2 in 12 Std. -
Ortszeit Niederschlagsmenge Niederschlagsart
Mo, 17.06. 6:30 0.0 l/m2 in 1 Std. -
Mo, 17.06. 6:20 keine Meldung -
Mo, 17.06. 6:10 keine Meldung -
Mo, 17.06. 6:00 0.0 l/m2 in 1 Std. -
Mo, 17.06. 5:50 keine Meldung -
Mo, 17.06. 5:40 keine Meldung -
Mo, 17.06. 5:30 0.0 l/m2 in 1 Std. -
Mo, 17.06. 5:00 0.0 l/m2 in 1 Std. -
Mo, 17.06. 4:30 0.0 l/m2 in 1 Std. -
Mo, 17.06. 4:00 0.0 l/m2 in 1 Std. -
Mo, 17.06. 3:30 0.0 l/m2 in 1 Std. -
Ortszeit Stärke Spitze Richtung
km/h Bft. km/h Grad Sektor
Mo, 17.06. 2:00 14 3 22 60° NO
So, 16.06. 20:00 9 2 28 20° N
So, 16.06. 14:00 9 2 33 260° W
So, 16.06. 8:00 22 4 43 250° W
So, 16.06. 2:00 22 4 72 240° SW
Sa, 15.06. 20:00 13 3 30 30° NO
Sa, 15.06. 14:00 11 2 54 270° W
Sa, 15.06. 8:00 31 5 54 250° W
Ortszeit Stärke Spitze Richtung
km/h Bft. km/h Grad Sektor
Mo, 17.06. 6:30 9 2 19 70° O
Mo, 17.06. 6:20 9 2 - 70° O
Mo, 17.06. 6:10 9 2 - 60° NO
Mo, 17.06. 6:00 11 2 22 60° NO
Mo, 17.06. 5:50 11 2 - 60° NO
Mo, 17.06. 5:40 9 2 - 60° NO
Mo, 17.06. 5:30 11 2 22 60° NO
Mo, 17.06. 5:00 11 2 22 60° NO
Mo, 17.06. 4:30 14 3 22 50° NO
Mo, 17.06. 4:00 11 2 17 60° NO
Mo, 17.06. 3:30 11 2 18 60° NO
Ortszeit Untergrenze Bedeckung Gattung
total tief tief mittel hoch
Mo, 17.06. 2:00 2100 m 5/8 5/8 - - -
So, 16.06. 20:00 2100 m 8/8 8/8 - - -
So, 16.06. 14:00 780 m 7/8 7/8 - - -
So, 16.06. 8:00 180 m 7/8 7/8 - - -
So, 16.06. 2:00 <30 m 7/8 0/8 - - -
Sa, 15.06. 20:00 810 m 8/8 8/8 - - -
Sa, 15.06. 14:00 1320 m 0/8 0/8 - - -
Sa, 15.06. 8:00 - 0/8 0/8 - - -
Ortszeit Bedeckungsgrad in Achtel und Wolkenuntergrenze
Mo, 17.06. 6:30 8(<30m)
Mo, 17.06. 6:20 8(<30m)
Mo, 17.06. 6:10 8(<30m)
Mo, 17.06. 6:00 8(<30m)
Mo, 17.06. 5:50 8(<30m)
Mo, 17.06. 5:40 8(<30m)
Mo, 17.06. 5:30 8(<30m)
Mo, 17.06. 5:00 8(<30m)
Mo, 17.06. 4:30 8(<30m)
Mo, 17.06. 4:00 2(<30m)
Mo, 17.06. 3:30 keine Wolken
Ortszeit Stationsdruck (hPa) Tendenz (hPa in 3 Std.)
Mo, 17.06. 2:00 910 - 0,9
So, 16.06. 20:00 910 + 0,5
So, 16.06. 14:00 910 + 0,4
So, 16.06. 8:00 909 + 1,0
So, 16.06. 2:00 908 + 2,5
Sa, 15.06. 20:00 904 - 0,8
Sa, 15.06. 14:00 905 + 0,6
Sa, 15.06. 8:00 903 + 2,1
Ortszeit Stationsdruck (hPa) Tendenz (hPa in 3 Std.)
Mo, 17.06. 6:30 909 0,0
Mo, 17.06. 6:20 909 keine Meldung
Mo, 17.06. 6:10 909 keine Meldung
Mo, 17.06. 6:00 909 - 0,2
Mo, 17.06. 5:50 909 keine Meldung
Mo, 17.06. 5:40 909 keine Meldung
Mo, 17.06. 5:30 909 - 0,5
Mo, 17.06. 5:00 909 - 0,6
Mo, 17.06. 4:30 909 - 0,9
Mo, 17.06. 4:00 909 - 1,5
Mo, 17.06. 3:30 909 - 1,0
Ortszeit Schneehöhe (cm)
Mo, 17.06. 2:00 -
So, 16.06. 20:00 -
So, 16.06. 14:00 -
So, 16.06. 8:00 -
So, 16.06. 2:00 -
Sa, 15.06. 20:00 -
Sa, 15.06. 14:00 -
Sa, 15.06. 8:00 -
Ortszeit Schneehöhe (cm)
Mo, 17.06. 6:30 -
Mo, 17.06. 6:20 -
Mo, 17.06. 6:10 -
Mo, 17.06. 6:00 -
Mo, 17.06. 5:50 -
Mo, 17.06. 5:40 -
Mo, 17.06. 5:30 -
Mo, 17.06. 5:00 -
Mo, 17.06. 4:30 -
Mo, 17.06. 4:00 -
Mo, 17.06. 3:30 -
Link zu dieser Seite / Seite empfehlen

Das Wetter in ...